Terminal Aerodrome Forecast
Issued by NWS

Home | Current Version | Previous Version | Text Only | Print | Product List | Glossary On
Versions: 1 2 3 4 5 6 7 8 9 10 11 12 13 14 15 16 17 18 19 20 21 22 23 24 25 26 27 28 29 30 31 32
895
FTUS43 KDVN 270120 AAA
TAFCID
TAF AMD
KCID 270120Z 2701/2724 29008KT P6SM VCTS SCT050CB OVC250
     FM270230 22014G25KT P6SM VCSH BKN050
     FM270600 23004KT 6SM BR OVC050 PROB30 2710/2712 5SM TSRA
      BKN040CB
     FM271200 18008KT 4SM -SHRA BR VCTS BKN025CB
     FM271500 17013G20KT P6SM BKN050=

USA.gov is the U.S. government's official web portal to all federal, state and local government web resources and services.